sensor_id;sensor_type;location;lat;lon;timestamp;pressure;altitude;pressure_sealevel;temperature;humidity
15529;BME280;7866;52.280;9.500;2023-07-30T00:01:26;99590.88;;;17.61;90.61
15529;BME280;7866;52.280;9.500;2023-07-30T00:06:29;99589.22;;;17.60;90.72
15529;BME280;7866;52.280;9.500;2023-07-30T00:11:31;99599.09;;;17.66;91.06
15529;BME280;7866;52.280;9.500;2023-07-30T00:16:32;99581.09;;;17.60;91.05
15529;BME280;7866;52.280;9.500;2023-07-30T00:21:36;99591.78;;;17.55;90.96
15529;BME280;7866;52.280;9.500;2023-07-30T00:26:37;99591.44;;;17.63;91.06
15529;BME280;7866;52.280;9.500;2023-07-30T00:31:39;99601.81;;;17.66;90.79
15529;BME280;7866;52.280;9.500;2023-07-30T00:36:42;99601.94;;;17.71;90.65
15529;BME280;7866;52.280;9.500;2023-07-30T00:41:44;99602.31;;;17.75;90.18
15529;BME280;7866;52.280;9.500;2023-07-30T00:46:46;99596.75;;;17.69;90.52
15529;BME280;7866;52.280;9.500;2023-07-30T00:51:49;99601.94;;;17.71;90.43
15529;BME280;7866;52.280;9.500;2023-07-30T00:56:52;99602.31;;;17.75;90.58
15529;BME280;7866;52.280;9.500;2023-07-30T01:01:56;99612.22;;;17.81;89.69
15529;BME280;7866;52.280;9.500;2023-07-30T01:07:00;99609.84;;;17.72;89.77
15529;BME280;7866;52.280;9.500;2023-07-30T01:12:03;99616.69;;;17.75;89.43
15529;BME280;7866;52.280;9.500;2023-07-30T01:17:06;99614.34;;;17.79;89.53
15529;BME280;7866;52.280;9.500;2023-07-30T01:22:09;99625.53;;;17.82;89.10
15529;BME280;7866;52.280;9.500;2023-07-30T01:27:16;99634.59;;;17.76;89.39
15529;BME280;7866;52.280;9.500;2023-07-30T01:32:25;99643.09;;;17.80;89.55
15529;BME280;7866;52.280;9.500;2023-07-30T01:37:29;99652.81;;;17.69;89.75
15529;BME280;7866;52.280;9.500;2023-07-30T01:42:31;99642.19;;;17.56;90.16
15529;BME280;7866;52.280;9.500;2023-07-30T01:47:32;99649.00;;;17.58;90.32
15529;BME280;7866;52.280;9.500;2023-07-30T01:52:35;99651.13;;;17.56;90.28
15529;BME280;7866;52.280;9.500;2023-07-30T01:57:38;99654.38;;;17.46;90.25
15529;BME280;7866;52.280;9.500;2023-07-30T02:02:40;99657.78;;;17.42;90.01
15529;BME280;7866;52.280;9.500;2023-07-30T02:07:43;99656.84;;;17.36;89.81
15529;BME280;7866;52.280;9.500;2023-07-30T02:13:07;99658.03;;;17.40;89.36
15529;BME280;7866;52.280;9.500;2023-07-30T02:18:09;99658.13;;;17.34;89.73
15529;BME280;7866;52.280;9.500;2023-07-30T02:23:14;99658.00;;;17.29;89.42
15529;BME280;7866;52.280;9.500;2023-07-30T02:28:15;99659.72;;;17.23;88.63
15529;BME280;7866;52.280;9.500;2023-07-30T02:33:17;99651.28;;;17.31;87.98
15529;BME280;7866;52.280;9.500;2023-07-30T02:38:20;99653.28;;;17.24;87.10
15529;BME280;7866;52.280;9.500;2023-07-30T02:43:21;99657.00;;;17.23;87.29
15529;BME280;7866;52.280;9.500;2023-07-30T02:48:23;99659.91;;;17.10;87.12
15529;BME280;7866;52.280;9.500;2023-07-30T02:53:26;99664.38;;;17.04;87.93
15529;BME280;7866;52.280;9.500;2023-07-30T02:58:28;99661.97;;;16.96;88.11
15529;BME280;7866;52.280;9.500;2023-07-30T03:03:29;99660.09;;;16.96;88.01
15529;BME280;7866;52.280;9.500;2023-07-30T03:08:32;99661.44;;;16.87;88.60
15529;BME280;7866;52.280;9.500;2023-07-30T03:13:36;99672.50;;;16.86;89.35
15529;BME280;7866;52.280;9.500;2023-07-30T03:18:37;99677.81;;;16.74;89.67
15529;BME280;7866;52.280;9.500;2023-07-30T03:23:40;99680.53;;;16.74;89.57
15529;BME280;7866;52.280;9.500;2023-07-30T03:28:44;99674.13;;;16.68;89.73
15529;BME280;7866;52.280;9.500;2023-07-30T03:33:46;99680.34;;;16.69;89.69
15529;BME280;7866;52.280;9.500;2023-07-30T03:38:49;99677.94;;;16.61;89.26
15529;BME280;7866;52.280;9.500;2023-07-30T03:43:50;99680.84;;;16.59;89.16
15529;BME280;7866;52.280;9.500;2023-07-30T03:48:52;99683.94;;;16.44;89.21
15529;BME280;7866;52.280;9.500;2023-07-30T03:58:57;99685.06;;;16.55;89.59
15529;BME280;7866;52.280;9.500;2023-07-30T04:03:59;99688.66;;;16.67;89.13
15529;BME280;7866;52.280;9.500;2023-07-30T04:09:01;99691.75;;;16.53;88.59
15529;BME280;7866;52.280;9.500;2023-07-30T04:14:04;99700.69;;;16.71;89.06
15529;BME280;7866;52.280;9.500;2023-07-30T04:19:08;99700.53;;;16.66;89.12
15529;BME280;7866;52.280;9.500;2023-07-30T04:24:09;99697.50;;;16.81;88.76
15529;BME280;7866;52.280;9.500;2023-07-30T04:29:13;99700.16;;;16.88;88.28
15529;BME280;7866;52.280;9.500;2023-07-30T04:34:16;99693.00;;;16.93;87.84
15529;BME280;7866;52.280;9.500;2023-07-30T04:39:18;99701.41;;;17.04;87.98
15529;BME280;7866;52.280;9.500;2023-07-30T04:44:21;99698.72;;;17.04;87.12
15529;BME280;7866;52.280;9.500;2023-07-30T04:49:23;99697.59;;;17.23;87.09
15529;BME280;7866;52.280;9.500;2023-07-30T04:54:24;99696.84;;;17.34;87.19
15529;BME280;7866;52.280;9.500;2023-07-30T04:59:28;99685.69;;;17.42;87.08
15529;BME280;7866;52.280;9.500;2023-07-30T05:04:29;99693.47;;;17.51;86.34
15529;BME280;7866;52.280;9.500;2023-07-30T05:09:31;99691.09;;;17.72;85.78
15529;BME280;7866;52.280;9.500;2023-07-30T05:14:34;99698.25;;;17.67;85.49
15529;BME280;7866;52.280;9.500;2023-07-30T05:19:35;99692.72;;;18.04;84.74
15529;BME280;7866;52.280;9.500;2023-07-30T05:24:37;99688.97;;;18.40;82.99
15529;BME280;7866;52.280;9.500;2023-07-30T05:29:40;99696.72;;;18.60;81.79
15529;BME280;7866;52.280;9.500;2023-07-30T05:34:42;99695.06;;;18.82;80.83
15529;BME280;7866;52.280;9.500;2023-07-30T05:39:44;99691.88;;;18.85;80.31
15529;BME280;7866;52.280;9.500;2023-07-30T05:44:47;99693.44;;;19.10;79.53
15529;BME280;7866;52.280;9.500;2023-07-30T05:49:48;99697.00;;;19.10;79.42
15529;BME280;7866;52.280;9.500;2023-07-30T05:54:50;99700.06;;;19.42;78.95
15529;BME280;7866;52.280;9.500;2023-07-30T05:59:53;99699.91;;;19.20;79.21
15529;BME280;7866;52.280;9.500;2023-07-30T06:04:55;99696.56;;;19.30;78.85
15529;BME280;7866;52.280;9.500;2023-07-30T06:09:56;99702.28;;;19.17;78.54
15529;BME280;7866;52.280;9.500;2023-07-30T06:14:59;99698.81;;;19.33;78.04
15529;BME280;7866;52.280;9.500;2023-07-30T06:20:01;99691.03;;;19.54;77.84
15529;BME280;7866;52.280;9.500;2023-07-30T06:25:03;99691.94;;;19.71;76.49
15529;BME280;7866;52.280;9.500;2023-07-30T06:30:07;99699.34;;;19.76;75.11
15529;BME280;7866;52.280;9.500;2023-07-30T06:35:09;99698.84;;;19.79;74.99
15529;BME280;7866;52.280;9.500;2023-07-30T06:40:11;99701.38;;;19.68;74.14
15529;BME280;7866;52.280;9.500;2023-07-30T06:45:14;99719.81;;;20.12;73.66
15529;BME280;7866;52.280;9.500;2023-07-30T06:50:15;99711.22;;;20.37;72.42
15529;BME280;7866;52.280;9.500;2023-07-30T06:55:17;99722.97;;;20.42;72.97
15529;BME280;7866;52.280;9.500;2023-07-30T07:00:20;99733.78;;;20.54;71.32
15529;BME280;7866;52.280;9.500;2023-07-30T07:05:22;99739.66;;;20.63;72.50
15529;BME280;7866;52.280;9.500;2023-07-30T07:10:24;99738.47;;;20.76;72.17
15529;BME280;7866;52.280;9.500;2023-07-30T07:15:28;99742.34;;;20.80;72.17
15529;BME280;7866;52.280;9.500;2023-07-30T07:20:29;99732.97;;;20.37;73.28
15529;BME280;7866;52.280;9.500;2023-07-30T07:25:31;99747.72;;;20.41;72.48
15529;BME280;7866;52.280;9.500;2023-07-30T07:30:35;99747.16;;;20.56;72.61
15529;BME280;7866;52.280;9.500;2023-07-30T07:35:37;99743.94;;;20.25;72.05
15529;BME280;7866;52.280;9.500;2023-07-30T07:40:39;99748.59;;;20.47;70.33
15529;BME280;7866;52.280;9.500;2023-07-30T07:45:43;99744.31;;;20.84;70.28
15529;BME280;7866;52.280;9.500;2023-07-30T07:50:44;99752.03;;;20.92;69.82
15529;BME280;7866;52.280;9.500;2023-07-30T07:55:46;99752.91;;;21.37;68.37
15529;BME280;7866;52.280;9.500;2023-07-30T08:00:49;99764.31;;;20.56;69.89
15529;BME280;7866;52.280;9.500;2023-07-30T08:05:51;99762.47;;;20.79;68.95
15529;BME280;7866;52.280;9.500;2023-07-30T08:10:53;99747.16;;;20.56;69.02
15529;BME280;7866;52.280;9.500;2023-07-30T08:15:56;99747.28;;;20.83;68.38
15529;BME280;7866;52.280;9.500;2023-07-30T08:20:59;99750.41;;;20.91;68.32
15529;BME280;7866;52.280;9.500;2023-07-30T08:26:01;99746.56;;;21.31;68.17
15529;BME280;7866;52.280;9.500;2023-07-30T08:31:05;99748.38;;;21.26;68.53
15529;BME280;7866;52.280;9.500;2023-07-30T08:36:06;99751.34;;;21.24;68.52
15529;BME280;7866;52.280;9.500;2023-07-30T08:41:08;99759.34;;;21.31;67.91
15529;BME280;7866;52.280;9.500;2023-07-30T08:46:11;99757.91;;;21.23;67.57
15529;BME280;7866;52.280;9.500;2023-07-30T08:51:13;99756.63;;;21.53;67.39
15529;BME280;7866;52.280;9.500;2023-07-30T08:56:15;99762.69;;;21.16;66.20
15529;BME280;7866;52.280;9.500;2023-07-30T09:01:18;99752.03;;;20.92;68.49
15529;BME280;7866;52.280;9.500;2023-07-30T09:06:21;99755.53;;;21.54;67.02
15529;BME280;7866;52.280;9.500;2023-07-30T09:11:25;99755.94;;;21.62;66.87
15529;BME280;7866;52.280;9.500;2023-07-30T09:16:28;99757.34;;;21.70;66.68
15529;BME280;7866;52.280;9.500;2023-07-30T09:21:30;99760.97;;;21.76;66.41
15529;BME280;7866;52.280;9.500;2023-07-30T09:26:42;99766.41;;;21.76;66.70
15529;BME280;7866;52.280;9.500;2023-07-30T09:31:50;99767.09;;;21.88;66.09
15529;BME280;7866;52.280;9.500;2023-07-30T09:36:54;99783.69;;;21.59;66.68
15529;BME280;7866;52.280;9.500;2023-07-30T09:41:59;99784.59;;;21.43;67.63
15529;BME280;7866;52.280;9.500;2023-07-30T09:47:03;99795.94;;;21.18;67.30
15529;BME280;7866;52.280;9.500;2023-07-30T09:52:06;99803.97;;;21.47;66.55
15529;BME280;7866;52.280;9.500;2023-07-30T09:57:07;99815.09;;;21.06;68.40
15529;BME280;7866;52.280;9.500;2023-07-30T10:02:11;99812.53;;;20.61;69.61
15529;BME280;7866;52.280;9.500;2023-07-30T10:07:16;99825.97;;;20.84;68.14
15529;BME280;7866;52.280;9.500;2023-07-30T10:12:22;99827.28;;;20.48;69.42
15529;BME280;7866;52.280;9.500;2023-07-30T10:17:26;99835.31;;;21.10;68.30
15529;BME280;7866;52.280;9.500;2023-07-30T10:22:28;99837.28;;;20.76;68.38
15529;BME280;7866;52.280;9.500;2023-07-30T10:27:36;99850.13;;;20.18;70.60
15529;BME280;7866;52.280;9.500;2023-07-30T10:32:41;99863.16;;;20.16;70.91
15529;BME280;7866;52.280;9.500;2023-07-30T10:37:45;99858.25;;;20.02;71.85
15529;BME280;7866;52.280;9.500;2023-07-30T10:42:48;99862.38;;;20.33;70.57
15529;BME280;7866;52.280;9.500;2023-07-30T10:47:51;99854.81;;;20.85;69.13
15529;BME280;7866;52.280;9.500;2023-07-30T10:52:52;99842.19;;;21.52;66.47
15529;BME280;7866;52.280;9.500;2023-07-30T10:57:55;99829.13;;;21.15;67.58
15529;BME280;7866;52.280;9.500;2023-07-30T11:02:57;99838.72;;;21.01;68.25
15529;BME280;7866;52.280;9.500;2023-07-30T11:07:59;99839.22;;;20.98;68.13
15529;BME280;7866;52.280;9.500;2023-07-30T11:13:01;99838.75;;;20.84;69.34
15529;BME280;7866;52.280;9.500;2023-07-30T11:18:04;99836.69;;;20.91;68.59
15529;BME280;7866;52.280;9.500;2023-07-30T11:23:19;99842.09;;;21.69;66.77
15529;BME280;7866;52.280;9.500;2023-07-30T11:28:28;99846.94;;;21.23;67.32
15529;BME280;7866;52.280;9.500;2023-07-30T11:33:32;99841.25;;;21.24;67.19
15529;BME280;7866;52.280;9.500;2023-07-30T11:38:35;99838.34;;;20.92;68.61
15529;BME280;7866;52.280;9.500;2023-07-30T11:43:38;99823.75;;;21.20;67.62
15529;BME280;7866;52.280;9.500;2023-07-30T11:48:44;99811.16;;;21.80;65.46
15529;BME280;7866;52.280;9.500;2023-07-30T11:53:47;99808.75;;;22.10;63.78
15529;BME280;7866;52.280;9.500;2023-07-30T11:58:54;99806.16;;;22.21;62.77
15529;BME280;7866;52.280;9.500;2023-07-30T12:03:59;99818.16;;;21.49;65.92
15529;BME280;7866;52.280;9.500;2023-07-30T12:09:01;99818.56;;;21.84;64.57
15529;BME280;7866;52.280;9.500;2023-07-30T12:14:03;99817.75;;;22.38;62.58
15529;BME280;7866;52.280;9.500;2023-07-30T12:19:06;99814.97;;;22.06;63.91
15529;BME280;7866;52.280;9.500;2023-07-30T12:24:07;99809.94;;;22.15;63.67
15529;BME280;7866;52.280;9.500;2023-07-30T12:29:09;99813.69;;;23.10;61.59
15529;BME280;7866;52.280;9.500;2023-07-30T12:34:12;99792.53;;;22.58;62.29
15529;BME280;7866;52.280;9.500;2023-07-30T12:39:13;99787.44;;;23.09;59.60
15529;BME280;7866;52.280;9.500;2023-07-30T12:44:15;99788.53;;;23.08;58.97
15529;BME280;7866;52.280;9.500;2023-07-30T12:49:18;99791.09;;;22.82;58.70
15529;BME280;7866;52.280;9.500;2023-07-30T12:54:19;99793.72;;;22.67;60.28
15529;BME280;7866;52.280;9.500;2023-07-30T12:59:21;99785.72;;;22.60;60.57
15529;BME280;7866;52.280;9.500;2023-07-30T13:04:24;99800.03;;;23.10;59.37
15529;BME280;7866;52.280;9.500;2023-07-30T13:09:27;99792.16;;;22.44;59.78
15529;BME280;7866;52.280;9.500;2023-07-30T13:14:29;99774.03;;;22.65;59.50
15529;BME280;7866;52.280;9.500;2023-07-30T13:19:32;99763.72;;;23.20;58.09
15529;BME280;7866;52.280;9.500;2023-07-30T13:24:35;99772.00;;;23.45;56.74
15529;BME280;7866;52.280;9.500;2023-07-30T13:29:36;99777.06;;;23.11;57.60
15529;BME280;7866;52.280;9.500;2023-07-30T13:34:39;99766.31;;;23.52;56.22
15529;BME280;7866;52.280;9.500;2023-07-30T13:39:41;99772.47;;;22.74;57.45
15529;BME280;7866;52.280;9.500;2023-07-30T13:44:42;99778.16;;;22.68;57.78
15529;BME280;7866;52.280;9.500;2023-07-30T13:49:45;99795.69;;;22.82;57.08
15529;BME280;7866;52.280;9.500;2023-07-30T13:54:48;99783.38;;;22.37;57.96
15529;BME280;7866;52.280;9.500;2023-07-30T13:59:49;99787.16;;;22.68;57.15
15529;BME280;7866;52.280;9.500;2023-07-30T14:04:52;99787.94;;;23.64;53.00
15529;BME280;7866;52.280;9.500;2023-07-30T14:09:54;99795.03;;;23.02;53.87
15529;BME280;7866;52.280;9.500;2023-07-30T14:14:56;99778.69;;;23.07;55.07
15529;BME280;7866;52.280;9.500;2023-07-30T14:19:59;99782.81;;;22.72;56.27
15529;BME280;7866;52.280;9.500;2023-07-30T14:25:00;99779.72;;;22.96;55.52
15529;BME280;7866;52.280;9.500;2023-07-30T14:30:03;99775.97;;;22.70;56.08
15529;BME280;7866;52.280;9.500;2023-07-30T14:35:07;99805.16;;;22.32;56.65
15529;BME280;7866;52.280;9.500;2023-07-30T14:40:09;99819.44;;;21.90;57.29
15529;BME280;7866;52.280;9.500;2023-07-30T14:45:11;99809.25;;;21.80;57.34
15529;BME280;7866;52.280;9.500;2023-07-30T14:50:14;99811.50;;;21.61;58.56
15529;BME280;7866;52.280;9.500;2023-07-30T14:55:15;99827.84;;;21.39;59.01
15529;BME280;7866;52.280;9.500;2023-07-30T15:00:17;99829.94;;;21.32;59.16
15529;BME280;7866;52.280;9.500;2023-07-30T15:05:20;99827.00;;;21.00;59.05
15529;BME280;7866;52.280;9.500;2023-07-30T15:10:22;99817.06;;;20.72;60.85
15529;BME280;7866;52.280;9.500;2023-07-30T15:15:23;99816.59;;;20.75;59.69
15529;BME280;7866;52.280;9.500;2023-07-30T15:20:26;99814.06;;;21.29;59.27
15529;BME280;7866;52.280;9.500;2023-07-30T15:25:28;99810.63;;;20.78;59.33
15529;BME280;7866;52.280;9.500;2023-07-30T15:30:30;99814.31;;;21.28;58.25
15529;BME280;7866;52.280;9.500;2023-07-30T15:35:33;99816.50;;;21.70;56.77
15529;BME280;7866;52.280;9.500;2023-07-30T15:40:34;99814.59;;;21.70;56.87
15529;BME280;7866;52.280;9.500;2023-07-30T15:45:36;99813.91;;;22.07;55.42
15529;BME280;7866;52.280;9.500;2023-07-30T15:50:44;99807.47;;;22.18;55.88
15529;BME280;7866;52.280;9.500;2023-07-30T15:55:46;99811.00;;;22.46;55.47
15529;BME280;7866;52.280;9.500;2023-07-30T16:00:48;99819.25;;;22.19;55.94
15529;BME280;7866;52.280;9.500;2023-07-30T16:05:51;99800.19;;;22.02;56.83
15529;BME280;7866;52.280;9.500;2023-07-30T16:11:00;99800.00;;;22.08;55.62
15529;BME280;7866;52.280;9.500;2023-07-30T16:16:08;99799.13;;;21.76;56.63
15529;BME280;7866;52.280;9.500;2023-07-30T16:21:12;99803.63;;;21.65;56.10
15529;BME280;7866;52.280;9.500;2023-07-30T16:26:14;99805.34;;;21.49;57.75
15529;BME280;7866;52.280;9.500;2023-07-30T16:31:16;99810.03;;;21.76;57.18
15529;BME280;7866;52.280;9.500;2023-07-30T16:36:19;99801.81;;;21.71;58.09
15529;BME280;7866;52.280;9.500;2023-07-30T16:41:20;99802.75;;;21.37;59.14
15529;BME280;7866;52.280;9.500;2023-07-30T16:46:22;99804.19;;;21.23;59.59
15529;BME280;7866;52.280;9.500;2023-07-30T16:51:25;99803.75;;;21.31;59.42
15529;BME280;7866;52.280;9.500;2023-07-30T16:56:27;99803.72;;;21.09;59.76
15529;BME280;7866;52.280;9.500;2023-07-30T17:01:28;99810.84;;;20.94;60.28
15529;BME280;7866;52.280;9.500;2023-07-30T17:06:31;99822.31;;;20.96;60.32
15529;BME280;7866;52.280;9.500;2023-07-30T17:16:37;99845.56;;;20.86;61.57
15529;BME280;7866;52.280;9.500;2023-07-30T17:21:40;99834.69;;;20.86;61.43
15529;BME280;7866;52.280;9.500;2023-07-30T17:26:41;99841.72;;;20.82;60.91
15529;BME280;7866;52.280;9.500;2023-07-30T17:31:43;99844.94;;;20.79;61.06
15529;BME280;7866;52.280;9.500;2023-07-30T17:36:46;99840.56;;;20.78;60.35
15529;BME280;7866;52.280;9.500;2023-07-30T17:41:47;99851.38;;;20.73;60.92
15529;BME280;7866;52.280;9.500;2023-07-30T17:46:49;99847.91;;;20.61;60.74
15529;BME280;7866;52.280;9.500;2023-07-30T17:51:52;99850.56;;;20.56;61.23
15529;BME280;7866;52.280;9.500;2023-07-30T17:56:53;99848.16;;;20.59;60.76
15529;BME280;7866;52.280;9.500;2023-07-30T18:01:55;99851.38;;;20.56;60.71
15529;BME280;7866;52.280;9.500;2023-07-30T18:06:58;99845.78;;;20.63;60.38
15529;BME280;7866;52.280;9.500;2023-07-30T18:12:00;99855.59;;;20.64;60.70
15529;BME280;7866;52.280;9.500;2023-07-30T18:17:02;99854.44;;;20.60;60.94
15529;BME280;7866;52.280;9.500;2023-07-30T18:22:05;99852.50;;;20.43;61.27
15529;BME280;7866;52.280;9.500;2023-07-30T18:27:07;99861.13;;;20.40;61.61
15529;BME280;7866;52.280;9.500;2023-07-30T18:32:09;99856.84;;;20.28;61.55
15529;BME280;7866;52.280;9.500;2023-07-30T18:37:12;99853.53;;;20.26;62.01
15529;BME280;7866;52.280;9.500;2023-07-30T18:42:13;99863.16;;;20.16;62.09
15529;BME280;7866;52.280;9.500;2023-07-30T18:47:15;99874.59;;;20.18;62.52
15529;BME280;7866;52.280;9.500;2023-07-30T18:52:18;99862.13;;;20.06;62.20
15529;BME280;7866;52.280;9.500;2023-07-30T18:57:20;99859.66;;;20.04;62.23
15529;BME280;7866;52.280;9.500;2023-07-30T19:02:21;99863.34;;;19.98;62.37
15529;BME280;7866;52.280;9.500;2023-07-30T19:07:24;99867.22;;;20.02;62.10
15529;BME280;7866;52.280;9.500;2023-07-30T19:12:26;99873.78;;;19.89;62.45
15529;BME280;7866;52.280;9.500;2023-07-30T19:17:27;99882.66;;;19.85;62.73
15529;BME280;7866;52.280;9.500;2023-07-30T19:22:31;99875.69;;;19.89;62.32
15529;BME280;7866;52.280;9.500;2023-07-30T19:27:32;99875.94;;;19.87;62.46
15529;BME280;7866;52.280;9.500;2023-07-30T19:32:35;99887.41;;;19.78;62.61
15529;BME280;7866;52.280;9.500;2023-07-30T19:37:38;99887.22;;;19.67;63.00
15529;BME280;7866;52.280;9.500;2023-07-30T19:42:40;99889.19;;;19.60;63.31
15529;BME280;7866;52.280;9.500;2023-07-30T19:47:41;99895.00;;;19.52;63.45
15529;BME280;7866;52.280;9.500;2023-07-30T19:52:44;99893.00;;;19.48;63.76
15529;BME280;7866;52.280;9.500;2023-07-30T19:57:46;99888.97;;;19.38;63.98
15529;BME280;7866;52.280;9.500;2023-07-30T20:02:48;99874.13;;;19.29;64.64
15529;BME280;7866;52.280;9.500;2023-07-30T20:07:51;99892.88;;;19.31;64.74
15529;BME280;7866;52.280;9.500;2023-07-30T20:12:52;99899.16;;;19.31;64.39
15529;BME280;7866;52.280;9.500;2023-07-30T20:17:54;99881.56;;;19.34;64.40
15529;BME280;7866;52.280;9.500;2023-07-30T20:22:57;99891.94;;;19.25;64.43
15529;BME280;7866;52.280;9.500;2023-07-30T20:27:59;99877.81;;;19.23;65.14
15529;BME280;7866;52.280;9.500;2023-07-30T20:33:01;99864.34;;;19.05;65.33
15529;BME280;7866;52.280;9.500;2023-07-30T20:38:04;99868.00;;;18.99;66.28
15529;BME280;7866;52.280;9.500;2023-07-30T20:43:06;99878.03;;;18.98;66.27
15529;BME280;7866;52.280;9.500;2023-07-30T20:48:07;99863.75;;;18.79;67.52
15529;BME280;7866;52.280;9.500;2023-07-30T20:53:10;99870.78;;;18.68;68.11
15529;BME280;7866;52.280;9.500;2023-07-30T20:58:14;99879.63;;;18.64;69.12
15529;BME280;7866;52.280;9.500;2023-07-30T21:03:16;99858.97;;;18.63;69.69
15529;BME280;7866;52.280;9.500;2023-07-30T21:08:19;99868.16;;;18.62;70.20
15529;BME280;7866;52.280;9.500;2023-07-30T21:13:21;99861.09;;;18.61;70.33
15529;BME280;7866;52.280;9.500;2023-07-30T21:18:23;99857.91;;;18.52;70.84
15529;BME280;7866;52.280;9.500;2023-07-30T21:23:26;99850.34;;;18.54;70.34
15529;BME280;7866;52.280;9.500;2023-07-30T21:28:27;99851.91;;;18.62;69.92
15529;BME280;7866;52.280;9.500;2023-07-30T21:33:30;99845.56;;;18.68;69.98
15529;BME280;7866;52.280;9.500;2023-07-30T21:38:34;99851.78;;;18.57;70.31
15529;BME280;7866;52.280;9.500;2023-07-30T21:43:35;99842.69;;;18.63;70.29
15529;BME280;7866;52.280;9.500;2023-07-30T21:48:37;99849.69;;;18.70;69.59
15529;BME280;7866;52.280;9.500;2023-07-30T21:53:40;99850.06;;;18.74;69.37
15529;BME280;7866;52.280;9.500;2023-07-30T21:58:43;99868.47;;;18.72;69.47
15529;BME280;7866;52.280;9.500;2023-07-30T22:03:45;99867.25;;;18.68;69.16
15529;BME280;7866;52.280;9.500;2023-07-30T22:08:48;99871.94;;;18.49;70.25
15529;BME280;7866;52.280;9.500;2023-07-30T22:13:49;99869.66;;;18.04;72.76
15529;BME280;7866;52.280;9.500;2023-07-30T22:18:51;99866.31;;;17.54;77.38
15529;BME280;7866;52.280;9.500;2023-07-30T22:23:54;99859.63;;;17.38;78.40
15529;BME280;7866;52.280;9.500;2023-07-30T22:28:55;99853.69;;;17.47;79.11
15529;BME280;7866;52.280;9.500;2023-07-30T22:33:57;99846.91;;;17.20;79.45
15529;BME280;7866;52.280;9.500;2023-07-30T22:39:00;99842.47;;;17.26;79.98
15529;BME280;7866;52.280;9.500;2023-07-30T22:44:02;99849.63;;;17.20;82.08
15529;BME280;7866;52.280;9.500;2023-07-30T22:49:04;99829.97;;;17.06;82.15
15529;BME280;7866;52.280;9.500;2023-07-30T22:54:07;99823.97;;;17.04;83.14
15529;BME280;7866;52.280;9.500;2023-07-30T22:59:08;99813.16;;;17.04;83.94
15529;BME280;7866;52.280;9.500;2023-07-30T23:04:10;99812.59;;;16.95;83.37
15529;BME280;7866;52.280;9.500;2023-07-30T23:09:13;99804.72;;;16.94;84.32
15529;BME280;7866;52.280;9.500;2023-07-30T23:14:15;99783.47;;;16.97;83.27
15529;BME280;7866;52.280;9.500;2023-07-30T23:19:17;99785.19;;;17.10;83.10
15529;BME280;7866;52.280;9.500;2023-07-30T23:24:20;99783.47;;;17.16;82.65
15529;BME280;7866;52.280;9.500;2023-07-30T23:29:21;99765.44;;;17.10;83.06
15529;BME280;7866;52.280;9.500;2023-07-30T23:34:23;99750.56;;;17.01;82.91
15529;BME280;7866;52.280;9.500;2023-07-30T23:39:26;99764.22;;;16.87;84.16
15529;BME280;7866;52.280;9.500;2023-07-30T23:44:28;99762.25;;;16.94;83.34
15529;BME280;7866;52.280;9.500;2023-07-30T23:49:29;99761.00;;;16.97;83.47
15529;BME280;7866;52.280;9.500;2023-07-30T23:54:32;99747.63;;;17.02;84.16
15529;BME280;7866;52.280;9.500;2023-07-30T23:59:34;99734.38;;;16.94;85.21
